createdAt,value
2022-08-04T00:00:10.116Z,20.9
2022-08-04T00:05:10.104Z,20.7
2022-08-04T00:10:10.105Z,20.7
2022-08-04T00:15:10.102Z,20.6
2022-08-04T00:20:10.102Z,20.4
2022-08-04T00:25:10.099Z,20.3
2022-08-04T00:30:10.110Z,20.4
2022-08-04T00:35:10.099Z,20.3
2022-08-04T00:40:10.108Z,20.3
2022-08-04T00:45:10.101Z,20.2
2022-08-04T00:50:10.114Z,20.2
2022-08-04T00:55:10.095Z,20.2
2022-08-04T01:00:10.110Z,20
2022-08-04T01:05:10.097Z,20
2022-08-04T01:25:10.103Z,20
2022-08-04T01:30:10.102Z,19.6
2022-08-04T01:35:10.100Z,19.5
2022-08-04T01:40:10.105Z,19.5
2022-08-04T01:45:10.105Z,19.6
2022-08-04T01:50:10.106Z,19.6
2022-08-04T01:55:10.100Z,19.4
2022-08-04T02:00:10.107Z,19.2
2022-08-04T02:05:10.100Z,19.2
2022-08-04T02:10:10.111Z,19.2
2022-08-04T02:15:10.113Z,19.2
2022-08-04T02:20:10.115Z,19.2
2022-08-04T02:25:10.097Z,19.1
2022-08-04T02:30:10.106Z,19.1
2022-08-04T02:35:10.111Z,19.1
2022-08-04T02:40:10.126Z,19.1
2022-08-04T02:45:10.119Z,19.1
2022-08-04T02:50:10.096Z,19
2022-08-04T02:55:10.116Z,18.9
2022-08-04T03:00:10.141Z,18.8
2022-08-04T03:05:10.120Z,18.8
2022-08-04T03:10:10.131Z,18.9
2022-08-04T03:15:10.117Z,18.9
2022-08-04T03:20:10.125Z,18.9
2022-08-04T03:25:10.120Z,18.8
2022-08-04T03:30:10.142Z,18.7
2022-08-04T03:35:10.129Z,18.6
2022-08-04T03:40:10.818Z,18.4
2022-08-04T03:45:20.502Z,18.3
2022-08-04T03:50:10.116Z,18.2
2022-08-04T03:55:10.106Z,18.2
2022-08-04T04:00:10.115Z,18.1
2022-08-04T04:05:10.107Z,18.2
2022-08-04T04:10:10.119Z,18.1
2022-08-04T04:15:10.159Z,18.2
2022-08-04T04:20:10.142Z,18.2
2022-08-04T04:25:10.118Z,18.4
2022-08-04T04:30:10.160Z,18.6
2022-08-04T04:35:10.108Z,19
2022-08-04T04:40:10.156Z,19.3
2022-08-04T04:45:10.102Z,19.6
2022-08-04T04:50:10.097Z,20
2022-08-04T04:55:10.103Z,20.2
2022-08-04T05:00:10.112Z,20.6
2022-08-04T05:05:10.099Z,20.8
2022-08-04T05:10:10.121Z,20.8
2022-08-04T05:15:10.114Z,21
2022-08-04T05:20:10.098Z,21.6
2022-08-04T05:25:10.103Z,22.2
2022-08-04T05:30:10.116Z,22.9
2022-08-04T05:35:10.104Z,23.6
2022-08-04T05:40:10.113Z,24.2
2022-08-04T05:45:10.120Z,24.5
2022-08-04T05:50:10.106Z,24.7
2022-08-04T05:55:10.102Z,24.6
2022-08-04T06:00:25.445Z,24.6
2022-08-04T06:05:10.095Z,24.6
2022-08-04T06:10:10.126Z,24.3
2022-08-04T06:15:10.112Z,24.4
2022-08-04T06:20:18.539Z,24.6
2022-08-04T06:25:10.135Z,24.7
2022-08-04T06:30:10.109Z,25
2022-08-04T06:35:10.119Z,24.8
2022-08-04T06:40:16.775Z,25
2022-08-04T06:45:10.106Z,25.1
2022-08-04T06:51:23.704Z,25
2022-08-04T06:55:10.093Z,25
2022-08-04T07:00:10.108Z,25.8
2022-08-04T07:05:10.095Z,25.7
2022-08-04T07:10:10.112Z,25.8
2022-08-04T07:15:10.098Z,26.1
2022-08-04T07:20:10.108Z,26.1
2022-08-04T07:25:12.800Z,26.6
2022-08-04T07:30:10.113Z,26.6
2022-08-04T07:35:10.100Z,27.5
2022-08-04T07:40:10.104Z,27.5
2022-08-04T07:45:10.735Z,27.4
2022-08-04T07:50:10.130Z,27.8
2022-08-04T07:55:10.123Z,27.8
2022-08-04T08:00:10.128Z,27.7
2022-08-04T08:05:10.120Z,28.1
2022-08-04T08:10:10.109Z,28.1
2022-08-04T08:15:10.294Z,28.1
2022-08-04T08:20:10.115Z,29.1
2022-08-04T08:25:10.093Z,29.1
2022-08-04T08:30:10.113Z,29.2
2022-08-04T08:35:10.126Z,29.2
2022-08-04T08:40:10.129Z,29.6
2022-08-04T08:45:10.119Z,29.6
2022-08-04T08:50:10.112Z,29.7
2022-08-04T08:55:10.112Z,30.1
2022-08-04T09:00:10.111Z,30.5
2022-08-04T09:05:10.133Z,31
2022-08-04T09:10:10.135Z,31.5
2022-08-04T09:15:10.111Z,31.7
2022-08-04T09:20:10.108Z,31.9
2022-08-04T09:25:10.139Z,32.3
2022-08-04T09:30:10.127Z,32.2
2022-08-04T09:35:15.094Z,32.7
2022-08-04T09:40:12.402Z,33
2022-08-04T09:45:11.093Z,32.8
2022-08-04T09:50:10.124Z,33.1
2022-08-04T09:55:10.112Z,33.8
2022-08-04T10:00:10.116Z,33
2022-08-04T10:05:10.152Z,33.3
2022-08-04T10:10:10.132Z,33.7
2022-08-04T10:15:10.109Z,33.5
2022-08-04T10:20:10.115Z,33.9
2022-08-04T10:25:37.843Z,34
2022-08-04T10:30:10.116Z,34.1
2022-08-04T10:35:10.108Z,34.3
2022-08-04T10:40:10.203Z,34.3
2022-08-04T10:45:10.100Z,33.7
2022-08-04T10:50:10.116Z,33.9
2022-08-04T10:55:10.094Z,34.3
2022-08-04T11:00:10.115Z,34.5
2022-08-04T11:05:10.095Z,34.8
2022-08-04T11:10:10.101Z,34.9
2022-08-04T11:15:10.125Z,34.8
2022-08-04T11:20:33.312Z,34.9
2022-08-04T11:25:10.109Z,33.9
2022-08-04T11:30:10.125Z,34.8
2022-08-04T11:35:10.104Z,35
2022-08-04T11:40:10.166Z,35
2022-08-04T11:45:10.113Z,35.1
2022-08-04T11:50:10.173Z,34.9
2022-08-04T11:55:10.111Z,34.8
2022-08-04T12:00:10.505Z,35.4
2022-08-04T12:05:10.106Z,35
2022-08-04T12:10:10.157Z,35.2
2022-08-04T12:15:10.108Z,35.5
2022-08-04T12:20:32.288Z,35.1
2022-08-04T12:25:10.120Z,35.4
2022-08-04T12:30:57.636Z,35.7
2022-08-04T12:35:10.104Z,35.3
2022-08-04T12:40:21.467Z,35.3
2022-08-04T12:45:10.108Z,35.4
2022-08-04T12:50:10.099Z,35.6
2022-08-04T12:55:10.095Z,35.1
2022-08-04T13:00:10.111Z,35.6
2022-08-04T13:05:10.368Z,35.5
2022-08-04T13:10:10.094Z,35.3
2022-08-04T13:15:10.245Z,35.6
2022-08-04T13:20:10.106Z,35.6
2022-08-04T13:25:18.600Z,35.5
2022-08-04T13:30:10.103Z,35.5
2022-08-04T13:35:10.091Z,35.2
2022-08-04T13:40:10.109Z,35.2
2022-08-04T13:45:10.108Z,35
2022-08-04T13:50:11.484Z,35.3
2022-08-04T13:55:10.095Z,35.8
2022-08-04T14:00:10.104Z,36
2022-08-04T14:05:18.272Z,35.5
2022-08-04T14:10:10.110Z,35.1
2022-08-04T14:15:10.090Z,35.1
2022-08-04T14:20:10.104Z,35.2
2022-08-04T14:25:15.243Z,35.2
2022-08-04T14:30:10.105Z,35.6
2022-08-04T14:35:10.101Z,35.3
2022-08-04T14:40:19.446Z,35.1
2022-08-04T14:45:10.107Z,34.8
2022-08-04T14:50:10.106Z,34.8
2022-08-04T14:55:15.808Z,35.8
2022-08-04T15:00:11.264Z,36
2022-08-04T15:05:54.540Z,36.6
2022-08-04T15:10:10.127Z,36.7
2022-08-04T15:15:34.447Z,37.1
2022-08-04T15:20:10.127Z,37
2022-08-04T15:25:10.126Z,36.5
2022-08-04T15:30:10.121Z,37.1
2022-08-04T15:35:10.099Z,37.3
2022-08-04T15:40:10.106Z,37
2022-08-04T15:45:10.113Z,36.8
2022-08-04T15:50:10.118Z,36.4
2022-08-04T15:55:10.109Z,36.7
2022-08-04T16:00:14.788Z,36.4
2022-08-04T16:05:17.647Z,36.5
2022-08-04T16:10:10.109Z,36.6
2022-08-04T16:15:10.096Z,36.9
2022-08-04T16:20:10.123Z,36.8
2022-08-04T16:25:10.103Z,36.3
2022-08-04T16:30:14.030Z,36.6
2022-08-04T16:35:10.106Z,36.5
2022-08-04T16:40:10.109Z,36.5
2022-08-04T16:45:10.097Z,36.7
2022-08-04T16:50:10.117Z,36.1
2022-08-04T16:55:10.112Z,35.9
2022-08-04T17:00:10.105Z,36.1
2022-08-04T17:05:10.099Z,36.4
2022-08-04T17:10:10.115Z,36.2
2022-08-04T17:15:10.118Z,36.5
2022-08-04T17:20:10.115Z,36.3
2022-08-04T17:25:10.101Z,35.9
2022-08-04T17:30:10.101Z,35.9
2022-08-04T17:35:10.096Z,35.9
2022-08-04T17:40:10.725Z,35.8
2022-08-04T17:45:48.996Z,35.6
2022-08-04T17:50:11.464Z,35.3
2022-08-04T17:55:13.557Z,35.1
2022-08-04T18:00:13.569Z,34.2
2022-08-04T18:05:10.818Z,33.9
2022-08-04T18:10:30.337Z,33.2
2022-08-04T18:15:10.097Z,32.2
2022-08-04T18:20:10.105Z,31.4
2022-08-04T18:25:10.097Z,30.8
2022-08-04T18:30:15.677Z,30.8
2022-08-04T18:40:28.305Z,29.1
2022-08-04T18:45:10.099Z,28.8
2022-08-04T18:50:32.382Z,28.5
2022-08-04T18:55:10.097Z,28.5
2022-08-04T19:00:10.111Z,27.9
2022-08-04T19:05:10.089Z,27.5
2022-08-04T19:15:11.065Z,27.2
2022-08-04T19:25:10.106Z,27.1
2022-08-04T19:30:11.571Z,26.8
2022-08-04T19:35:11.014Z,26.7
2022-08-04T19:40:10.348Z,26.6
2022-08-04T19:45:10.100Z,26.4
2022-08-04T19:50:10.344Z,26.2
2022-08-04T19:55:10.931Z,26.1
2022-08-04T20:00:10.222Z,26
2022-08-04T20:05:10.106Z,25.8
2022-08-04T20:10:13.027Z,25.7
2022-08-04T20:15:11.008Z,25.6
2022-08-04T20:20:10.107Z,25.5
2022-08-04T20:25:18.458Z,25.6
2022-08-04T20:30:14.156Z,25.7
2022-08-04T20:35:14.125Z,25.5
2022-08-04T20:40:10.108Z,25.1
2022-08-04T20:45:10.105Z,24.8
2022-08-04T20:50:10.101Z,24.8
2022-08-04T20:55:10.093Z,24.7
2022-08-04T21:00:10.110Z,24.6
2022-08-04T21:05:10.097Z,24.4
2022-08-04T21:10:10.115Z,24.3
2022-08-04T21:15:13.867Z,24.2
2022-08-04T21:20:10.389Z,24.2
2022-08-04T21:25:12.560Z,24.2
2022-08-04T21:30:10.433Z,24.1
2022-08-04T21:40:11.519Z,23.9
2022-08-04T21:45:10.095Z,23.8
2022-08-04T21:50:10.119Z,23.6
2022-08-04T21:55:10.108Z,23.5
2022-08-04T22:00:10.780Z,23.5
2022-08-04T22:05:10.103Z,23.4
2022-08-04T22:10:10.096Z,23.3
2022-08-04T22:15:22.717Z,22.9
2022-08-04T22:20:23.881Z,23.1
2022-08-04T22:25:13.510Z,23
2022-08-04T22:30:17.565Z,22.9
2022-08-04T22:35:30.787Z,22.8
2022-08-04T22:40:10.132Z,22.8
2022-08-04T22:45:10.102Z,22.8
2022-08-04T22:50:27.295Z,22.9
2022-08-04T22:55:10.100Z,23.1
2022-08-04T23:00:10.098Z,23
2022-08-04T23:05:10.092Z,22.9
2022-08-04T23:10:10.106Z,23.2
2022-08-04T23:15:10.101Z,22.9
2022-08-04T23:20:11.820Z,23.1
2022-08-04T23:25:15.026Z,23.4
2022-08-04T23:30:10.115Z,23.3
2022-08-04T23:35:10.106Z,22.8
2022-08-04T23:40:28.112Z,22.3
2022-08-04T23:45:10.101Z,22.1
2022-08-04T23:50:10.106Z,22.1
2022-08-04T23:55:10.102Z,21.9
